sensor_id;sensor_type;location;lat;lon;timestamp;P1;durP1;ratioP1;P2;durP2;ratioP2
16979;SDS011;42288;52.182;21.156;2024-01-30T00:01:04;52.13;;;21.97;;
16979;SDS011;42288;52.182;21.156;2024-01-30T00:03:30;50.77;;;20.63;;
16979;SDS011;42288;52.182;21.156;2024-01-30T00:05:55;48.57;;;20.67;;
16979;SDS011;42288;52.182;21.156;2024-01-30T00:08:21;45.23;;;19.43;;
16979;SDS011;42288;52.182;21.156;2024-01-30T00:10:46;47.27;;;21.70;;
16979;SDS011;42288;52.182;21.156;2024-01-30T00:13:12;49.83;;;19.73;;
16979;SDS011;42288;52.182;21.156;2024-01-30T00:15:39;46.43;;;19.67;;
16979;SDS011;42288;52.182;21.156;2024-01-30T00:18:04;49.67;;;19.63;;
16979;SDS011;42288;52.182;21.156;2024-01-30T00:20:30;45.13;;;20.33;;
16979;SDS011;42288;52.182;21.156;2024-01-30T00:22:55;48.33;;;20.10;;
16979;SDS011;42288;52.182;21.156;2024-01-30T00:25:21;50.37;;;19.60;;
16979;SDS011;42288;52.182;21.156;2024-01-30T00:27:46;43.70;;;19.47;;
16979;SDS011;42288;52.182;21.156;2024-01-30T00:30:12;49.40;;;20.50;;
16979;SDS011;42288;52.182;21.156;2024-01-30T00:32:38;44.93;;;20.03;;
16979;SDS011;42288;52.182;21.156;2024-01-30T00:35:03;46.77;;;20.47;;
16979;SDS011;42288;52.182;21.156;2024-01-30T00:37:29;40.07;;;19.27;;
16979;SDS011;42288;52.182;21.156;2024-01-30T00:39:57;43.20;;;18.73;;
16979;SDS011;42288;52.182;21.156;2024-01-30T00:42:23;42.13;;;18.77;;
16979;SDS011;42288;52.182;21.156;2024-01-30T00:44:49;45.17;;;20.20;;
16979;SDS011;42288;52.182;21.156;2024-01-30T00:47:14;43.70;;;19.50;;
16979;SDS011;42288;52.182;21.156;2024-01-30T00:49:40;51.30;;;20.60;;
16979;SDS011;42288;52.182;21.156;2024-01-30T00:52:05;43.33;;;18.83;;
16979;SDS011;42288;52.182;21.156;2024-01-30T00:54:31;43.00;;;17.70;;
16979;SDS011;42288;52.182;21.156;2024-01-30T00:56:56;44.83;;;18.30;;
16979;SDS011;42288;52.182;21.156;2024-01-30T00:59:22;45.93;;;19.63;;
16979;SDS011;42288;52.182;21.156;2024-01-30T01:01:47;44.43;;;17.90;;
16979;SDS011;42288;52.182;21.156;2024-01-30T01:04:13;49.87;;;19.60;;
16979;SDS011;42288;52.182;21.156;2024-01-30T01:06:39;45.40;;;18.97;;
16979;SDS011;42288;52.182;21.156;2024-01-30T01:09:06;42.47;;;18.27;;
16979;SDS011;42288;52.182;21.156;2024-01-30T01:11:32;46.93;;;19.13;;
16979;SDS011;42288;52.182;21.156;2024-01-30T01:13:57;43.00;;;18.90;;
16979;SDS011;42288;52.182;21.156;2024-01-30T01:16:23;43.40;;;18.37;;
16979;SDS011;42288;52.182;21.156;2024-01-30T01:18:48;46.40;;;19.03;;
16979;SDS011;42288;52.182;21.156;2024-01-30T01:21:14;41.20;;;17.67;;
16979;SDS011;42288;52.182;21.156;2024-01-30T01:23:39;38.53;;;17.63;;
16979;SDS011;42288;52.182;21.156;2024-01-30T01:26:05;44.07;;;18.50;;
16979;SDS011;42288;52.182;21.156;2024-01-30T01:28:32;46.80;;;19.33;;
16979;SDS011;42288;52.182;21.156;2024-01-30T01:30:57;42.63;;;17.70;;
16979;SDS011;42288;52.182;21.156;2024-01-30T01:33:29;41.67;;;17.63;;
16979;SDS011;42288;52.182;21.156;2024-01-30T01:35:57;46.87;;;17.80;;
16979;SDS011;42288;52.182;21.156;2024-01-30T01:38:23;53.57;;;21.07;;
16979;SDS011;42288;52.182;21.156;2024-01-30T01:40:48;44.17;;;18.40;;
16979;SDS011;42288;52.182;21.156;2024-01-30T01:43:14;44.57;;;17.47;;
16979;SDS011;42288;52.182;21.156;2024-01-30T01:45:40;48.57;;;20.30;;
16979;SDS011;42288;52.182;21.156;2024-01-30T01:48:05;45.40;;;17.57;;
16979;SDS011;42288;52.182;21.156;2024-01-30T01:50:33;43.10;;;19.90;;
16979;SDS011;42288;52.182;21.156;2024-01-30T01:52:58;46.27;;;19.73;;
16979;SDS011;42288;52.182;21.156;2024-01-30T01:55:24;45.50;;;19.77;;
16979;SDS011;42288;52.182;21.156;2024-01-30T01:57:52;49.93;;;20.37;;
16979;SDS011;42288;52.182;21.156;2024-01-30T02:00:18;50.17;;;19.23;;
16979;SDS011;42288;52.182;21.156;2024-01-30T02:02:45;40.83;;;19.37;;
16979;SDS011;42288;52.182;21.156;2024-01-30T02:05:11;43.37;;;18.77;;
16979;SDS011;42288;52.182;21.156;2024-01-30T02:07:37;50.63;;;21.27;;
16979;SDS011;42288;52.182;21.156;2024-01-30T02:10:04;46.43;;;19.40;;
16979;SDS011;42288;52.182;21.156;2024-01-30T02:12:30;49.10;;;20.17;;
16979;SDS011;42288;52.182;21.156;2024-01-30T02:14:55;46.03;;;19.10;;
16979;SDS011;42288;52.182;21.156;2024-01-30T02:17:21;51.10;;;20.50;;
16979;SDS011;42288;52.182;21.156;2024-01-30T02:19:48;45.57;;;20.87;;
16979;SDS011;42288;52.182;21.156;2024-01-30T02:22:14;45.33;;;20.13;;
16979;SDS011;42288;52.182;21.156;2024-01-30T02:24:40;41.20;;;18.50;;
16979;SDS011;42288;52.182;21.156;2024-01-30T02:27:05;44.17;;;19.77;;
16979;SDS011;42288;52.182;21.156;2024-01-30T02:29:31;53.40;;;21.60;;
16979;SDS011;42288;52.182;21.156;2024-01-30T02:31:56;47.87;;;20.87;;
16979;SDS011;42288;52.182;21.156;2024-01-30T02:34:22;47.60;;;20.93;;
16979;SDS011;42288;52.182;21.156;2024-01-30T02:36:48;49.07;;;20.60;;
16979;SDS011;42288;52.182;21.156;2024-01-30T02:39:13;42.60;;;19.33;;
16979;SDS011;42288;52.182;21.156;2024-01-30T02:41:39;46.73;;;18.93;;
16979;SDS011;42288;52.182;21.156;2024-01-30T02:44:05;48.07;;;19.67;;
16979;SDS011;42288;52.182;21.156;2024-01-30T02:46:30;43.40;;;17.30;;
16979;SDS011;42288;52.182;21.156;2024-01-30T02:48:56;40.50;;;17.73;;
16979;SDS011;42288;52.182;21.156;2024-01-30T02:51:22;38.93;;;17.40;;
16979;SDS011;42288;52.182;21.156;2024-01-30T02:53:47;42.50;;;17.43;;
16979;SDS011;42288;52.182;21.156;2024-01-30T02:56:13;41.73;;;19.33;;
16979;SDS011;42288;52.182;21.156;2024-01-30T02:58:39;52.40;;;19.77;;
16979;SDS011;42288;52.182;21.156;2024-01-30T03:01:04;43.80;;;18.37;;
16979;SDS011;42288;52.182;21.156;2024-01-30T03:03:30;45.70;;;20.00;;
16979;SDS011;42288;52.182;21.156;2024-01-30T03:05:56;46.93;;;19.80;;
16979;SDS011;42288;52.182;21.156;2024-01-30T03:08:21;48.37;;;20.10;;
16979;SDS011;42288;52.182;21.156;2024-01-30T03:10:47;46.17;;;19.37;;
16979;SDS011;42288;52.182;21.156;2024-01-30T03:13:12;47.60;;;19.67;;
16979;SDS011;42288;52.182;21.156;2024-01-30T03:15:38;55.33;;;21.77;;
16979;SDS011;42288;52.182;21.156;2024-01-30T03:18:04;47.80;;;20.40;;
16979;SDS011;42288;52.182;21.156;2024-01-30T03:20:29;47.27;;;19.83;;
16979;SDS011;42288;52.182;21.156;2024-01-30T03:22:55;42.57;;;19.77;;
16979;SDS011;42288;52.182;21.156;2024-01-30T03:25:21;49.50;;;20.50;;
16979;SDS011;42288;52.182;21.156;2024-01-30T03:27:47;48.87;;;20.67;;
16979;SDS011;42288;52.182;21.156;2024-01-30T03:30:12;44.67;;;20.00;;
16979;SDS011;42288;52.182;21.156;2024-01-30T03:32:38;48.83;;;21.07;;
16979;SDS011;42288;52.182;21.156;2024-01-30T03:35:03;49.70;;;22.70;;
16979;SDS011;42288;52.182;21.156;2024-01-30T03:37:29;46.33;;;19.33;;
16979;SDS011;42288;52.182;21.156;2024-01-30T03:39:55;55.47;;;22.23;;
16979;SDS011;42288;52.182;21.156;2024-01-30T03:42:20;46.17;;;19.77;;
16979;SDS011;42288;52.182;21.156;2024-01-30T03:44:47;52.37;;;21.27;;
16979;SDS011;42288;52.182;21.156;2024-01-30T03:47:13;49.77;;;20.80;;
16979;SDS011;42288;52.182;21.156;2024-01-30T03:49:38;46.90;;;21.80;;
16979;SDS011;42288;52.182;21.156;2024-01-30T03:52:04;48.00;;;21.17;;
16979;SDS011;42288;52.182;21.156;2024-01-30T03:54:30;48.77;;;19.80;;
16979;SDS011;42288;52.182;21.156;2024-01-30T03:56:55;44.63;;;19.60;;
16979;SDS011;42288;52.182;21.156;2024-01-30T03:59:21;50.43;;;21.70;;
16979;SDS011;42288;52.182;21.156;2024-01-30T04:01:49;53.43;;;22.20;;
16979;SDS011;42288;52.182;21.156;2024-01-30T04:04:16;49.00;;;20.20;;
16979;SDS011;42288;52.182;21.156;2024-01-30T04:06:42;55.10;;;20.83;;
16979;SDS011;42288;52.182;21.156;2024-01-30T04:09:08;49.47;;;21.40;;
16979;SDS011;42288;52.182;21.156;2024-01-30T04:11:34;57.57;;;23.70;;
16979;SDS011;42288;52.182;21.156;2024-01-30T04:14:00;53.60;;;22.93;;
16979;SDS011;42288;52.182;21.156;2024-01-30T04:16:25;56.30;;;22.07;;
16979;SDS011;42288;52.182;21.156;2024-01-30T04:18:51;46.60;;;21.03;;
16979;SDS011;42288;52.182;21.156;2024-01-30T04:21:17;54.70;;;23.57;;
16979;SDS011;42288;52.182;21.156;2024-01-30T04:23:43;49.63;;;20.27;;
16979;SDS011;42288;52.182;21.156;2024-01-30T04:26:08;53.93;;;22.07;;
16979;SDS011;42288;52.182;21.156;2024-01-30T04:28:34;56.50;;;23.03;;
16979;SDS011;42288;52.182;21.156;2024-01-30T04:30:59;52.93;;;22.00;;
16979;SDS011;42288;52.182;21.156;2024-01-30T04:33:25;55.40;;;22.60;;
16979;SDS011;42288;52.182;21.156;2024-01-30T04:35:50;52.57;;;21.13;;
16979;SDS011;42288;52.182;21.156;2024-01-30T04:38:16;55.90;;;22.33;;
16979;SDS011;42288;52.182;21.156;2024-01-30T04:40:42;44.67;;;21.33;;
16979;SDS011;42288;52.182;21.156;2024-01-30T04:43:08;59.03;;;23.23;;
16979;SDS011;42288;52.182;21.156;2024-01-30T04:45:33;46.80;;;20.47;;
16979;SDS011;42288;52.182;21.156;2024-01-30T04:47:59;57.10;;;22.30;;
16979;SDS011;42288;52.182;21.156;2024-01-30T04:50:24;52.00;;;22.00;;
16979;SDS011;42288;52.182;21.156;2024-01-30T04:52:51;52.87;;;22.53;;
16979;SDS011;42288;52.182;21.156;2024-01-30T04:55:17;51.03;;;21.80;;
16979;SDS011;42288;52.182;21.156;2024-01-30T04:57:43;54.50;;;22.77;;
16979;SDS011;42288;52.182;21.156;2024-01-30T05:00:08;48.33;;;21.03;;
16979;SDS011;42288;52.182;21.156;2024-01-30T05:02:34;58.40;;;22.63;;
16979;SDS011;42288;52.182;21.156;2024-01-30T05:05:00;47.63;;;20.63;;
16979;SDS011;42288;52.182;21.156;2024-01-30T05:07:25;53.67;;;22.47;;
16979;SDS011;42288;52.182;21.156;2024-01-30T05:09:51;43.00;;;19.77;;
16979;SDS011;42288;52.182;21.156;2024-01-30T05:12:17;56.57;;;21.20;;
16979;SDS011;42288;52.182;21.156;2024-01-30T05:14:42;51.87;;;20.37;;
16979;SDS011;42288;52.182;21.156;2024-01-30T05:17:07;53.53;;;22.70;;
16979;SDS011;42288;52.182;21.156;2024-01-30T05:19:35;54.90;;;21.70;;
16979;SDS011;42288;52.182;21.156;2024-01-30T05:22:00;42.20;;;18.83;;
16979;SDS011;42288;52.182;21.156;2024-01-30T05:24:26;45.73;;;19.90;;
16979;SDS011;42288;52.182;21.156;2024-01-30T05:26:51;48.33;;;20.87;;
16979;SDS011;42288;52.182;21.156;2024-01-30T05:29:17;48.67;;;21.93;;
16979;SDS011;42288;52.182;21.156;2024-01-30T05:31:42;44.57;;;20.53;;
16979;SDS011;42288;52.182;21.156;2024-01-30T05:34:08;54.20;;;24.50;;
16979;SDS011;42288;52.182;21.156;2024-01-30T05:36:34;53.27;;;23.63;;
16979;SDS011;42288;52.182;21.156;2024-01-30T05:39:00;53.77;;;23.30;;
16979;SDS011;42288;52.182;21.156;2024-01-30T05:41:25;51.33;;;23.03;;
16979;SDS011;42288;52.182;21.156;2024-01-30T05:43:51;47.50;;;21.13;;
16979;SDS011;42288;52.182;21.156;2024-01-30T05:46:16;52.07;;;21.30;;
16979;SDS011;42288;52.182;21.156;2024-01-30T05:48:42;46.97;;;20.90;;
16979;SDS011;42288;52.182;21.156;2024-01-30T05:51:08;52.17;;;20.90;;
16979;SDS011;42288;52.182;21.156;2024-01-30T05:53:33;53.73;;;21.90;;
16979;SDS011;42288;52.182;21.156;2024-01-30T05:56:01;48.07;;;20.07;;
16979;SDS011;42288;52.182;21.156;2024-01-30T05:58:27;50.23;;;20.73;;
16979;SDS011;42288;52.182;21.156;2024-01-30T06:00:58;49.87;;;20.40;;
16979;SDS011;42288;52.182;21.156;2024-01-30T06:03:24;52.20;;;21.97;;
16979;SDS011;42288;52.182;21.156;2024-01-30T06:05:49;50.30;;;20.93;;
16979;SDS011;42288;52.182;21.156;2024-01-30T06:08:15;46.20;;;20.60;;
16979;SDS011;42288;52.182;21.156;2024-01-30T06:10:40;51.47;;;22.57;;
16979;SDS011;42288;52.182;21.156;2024-01-30T06:13:06;57.70;;;24.13;;
16979;SDS011;42288;52.182;21.156;2024-01-30T06:15:31;56.97;;;23.07;;
16979;SDS011;42288;52.182;21.156;2024-01-30T06:17:57;56.80;;;23.53;;
16979;SDS011;42288;52.182;21.156;2024-01-30T06:20:24;48.13;;;21.20;;
16979;SDS011;42288;52.182;21.156;2024-01-30T06:22:49;52.80;;;22.30;;
16979;SDS011;42288;52.182;21.156;2024-01-30T06:25:15;53.53;;;23.83;;
16979;SDS011;42288;52.182;21.156;2024-01-30T06:27:41;58.47;;;22.10;;
16979;SDS011;42288;52.182;21.156;2024-01-30T06:30:07;48.90;;;21.37;;
16979;SDS011;42288;52.182;21.156;2024-01-30T06:32:33;50.57;;;21.80;;
16979;SDS011;42288;52.182;21.156;2024-01-30T06:35:00;45.63;;;20.07;;
16979;SDS011;42288;52.182;21.156;2024-01-30T06:37:26;49.97;;;22.27;;
16979;SDS011;42288;52.182;21.156;2024-01-30T06:39:52;51.27;;;22.17;;
16979;SDS011;42288;52.182;21.156;2024-01-30T06:42:18;49.40;;;21.50;;
16979;SDS011;42288;52.182;21.156;2024-01-30T06:44:44;54.20;;;23.13;;
16979;SDS011;42288;52.182;21.156;2024-01-30T06:47:09;61.07;;;22.93;;
16979;SDS011;42288;52.182;21.156;2024-01-30T06:49:35;57.63;;;22.90;;
16979;SDS011;42288;52.182;21.156;2024-01-30T06:52:04;61.00;;;23.70;;
16979;SDS011;42288;52.182;21.156;2024-01-30T06:54:30;70.83;;;24.93;;
16979;SDS011;42288;52.182;21.156;2024-01-30T06:56:56;69.77;;;24.97;;
16979;SDS011;42288;52.182;21.156;2024-01-30T06:59:21;85.00;;;27.63;;
16979;SDS011;42288;52.182;21.156;2024-01-30T07:01:47;85.63;;;29.13;;
16979;SDS011;42288;52.182;21.156;2024-01-30T07:04:13;102.03;;;32.90;;
16979;SDS011;42288;52.182;21.156;2024-01-30T07:06:38;103.83;;;32.87;;
16979;SDS011;42288;52.182;21.156;2024-01-30T07:09:04;84.67;;;30.07;;
16979;SDS011;42288;52.182;21.156;2024-01-30T07:11:30;82.57;;;31.10;;
16979;SDS011;42288;52.182;21.156;2024-01-30T07:13:56;80.20;;;30.90;;
16979;SDS011;42288;52.182;21.156;2024-01-30T07:16:21;87.07;;;29.93;;
16979;SDS011;42288;52.182;21.156;2024-01-30T07:18:48;82.70;;;32.03;;
16979;SDS011;42288;52.182;21.156;2024-01-30T07:21:14;67.37;;;27.63;;
16979;SDS011;42288;52.182;21.156;2024-01-30T07:23:40;75.27;;;31.83;;
16979;SDS011;42288;52.182;21.156;2024-01-30T07:26:06;248.10;;;80.80;;
16979;SDS011;42288;52.182;21.156;2024-01-30T07:28:33;150.00;;;55.93;;
16979;SDS011;42288;52.182;21.156;2024-01-30T07:30:59;93.43;;;39.97;;
16979;SDS011;42288;52.182;21.156;2024-01-30T07:33:25;66.33;;;29.77;;
16979;SDS011;42288;52.182;21.156;2024-01-30T07:35:51;63.33;;;25.93;;
16979;SDS011;42288;52.182;21.156;2024-01-30T07:38:17;67.90;;;29.20;;
16979;SDS011;42288;52.182;21.156;2024-01-30T07:40:43;52.27;;;22.70;;
16979;SDS011;42288;52.182;21.156;2024-01-30T07:43:08;51.27;;;23.13;;
16979;SDS011;42288;52.182;21.156;2024-01-30T07:45:35;52.37;;;23.13;;
16979;SDS011;42288;52.182;21.156;2024-01-30T07:48:00;52.07;;;22.27;;
16979;SDS011;42288;52.182;21.156;2024-01-30T07:50:26;54.83;;;22.50;;
16979;SDS011;42288;52.182;21.156;2024-01-30T07:52:52;46.50;;;21.30;;
16979;SDS011;42288;52.182;21.156;2024-01-30T07:55:20;52.43;;;23.80;;
16979;SDS011;42288;52.182;21.156;2024-01-30T07:57:49;59.43;;;22.87;;
16979;SDS011;42288;52.182;21.156;2024-01-30T08:00:17;49.00;;;21.97;;
16979;SDS011;42288;52.182;21.156;2024-01-30T08:02:43;50.23;;;22.03;;
16979;SDS011;42288;52.182;21.156;2024-01-30T08:05:09;50.47;;;22.70;;
16979;SDS011;42288;52.182;21.156;2024-01-30T08:07:36;47.63;;;21.70;;
16979;SDS011;42288;52.182;21.156;2024-01-30T08:10:02;49.07;;;21.77;;
16979;SDS011;42288;52.182;21.156;2024-01-30T08:12:27;54.60;;;22.73;;
16979;SDS011;42288;52.182;21.156;2024-01-30T08:14:53;49.10;;;22.17;;
16979;SDS011;42288;52.182;21.156;2024-01-30T08:17:18;53.37;;;22.90;;
16979;SDS011;42288;52.182;21.156;2024-01-30T08:19:44;46.87;;;21.30;;
16979;SDS011;42288;52.182;21.156;2024-01-30T08:22:09;56.17;;;24.23;;
16979;SDS011;42288;52.182;21.156;2024-01-30T08:24:35;56.83;;;22.60;;
16979;SDS011;42288;52.182;21.156;2024-01-30T08:27:00;47.20;;;21.47;;
16979;SDS011;42288;52.182;21.156;2024-01-30T08:29:27;43.10;;;20.60;;
16979;SDS011;42288;52.182;21.156;2024-01-30T08:31:53;47.03;;;20.90;;
16979;SDS011;42288;52.182;21.156;2024-01-30T08:34:20;52.77;;;22.97;;
16979;SDS011;42288;52.182;21.156;2024-01-30T08:36:46;55.50;;;24.60;;
16979;SDS011;42288;52.182;21.156;2024-01-30T08:39:11;57.13;;;23.63;;
16979;SDS011;42288;52.182;21.156;2024-01-30T08:41:37;50.37;;;23.23;;
16979;SDS011;42288;52.182;21.156;2024-01-30T08:44:02;50.20;;;21.53;;
16979;SDS011;42288;52.182;21.156;2024-01-30T08:46:29;50.13;;;21.87;;
16979;SDS011;42288;52.182;21.156;2024-01-30T08:48:55;50.37;;;22.20;;
16979;SDS011;42288;52.182;21.156;2024-01-30T08:51:21;47.30;;;21.90;;
16979;SDS011;42288;52.182;21.156;2024-01-30T08:53:46;49.50;;;21.13;;
16979;SDS011;42288;52.182;21.156;2024-01-30T08:56:12;55.00;;;24.00;;
16979;SDS011;42288;52.182;21.156;2024-01-30T08:58:38;47.97;;;21.40;;
16979;SDS011;42288;52.182;21.156;2024-01-30T09:01:04;43.60;;;20.33;;
16979;SDS011;42288;52.182;21.156;2024-01-30T09:03:31;47.87;;;20.93;;
16979;SDS011;42288;52.182;21.156;2024-01-30T09:05:56;48.53;;;21.00;;
16979;SDS011;42288;52.182;21.156;2024-01-30T09:08:22;46.30;;;20.70;;
16979;SDS011;42288;52.182;21.156;2024-01-30T09:10:47;44.83;;;20.23;;
16979;SDS011;42288;52.182;21.156;2024-01-30T09:13:14;43.80;;;20.30;;
16979;SDS011;42288;52.182;21.156;2024-01-30T09:15:40;44.67;;;19.93;;
16979;SDS011;42288;52.182;21.156;2024-01-30T09:18:06;42.63;;;18.93;;
16979;SDS011;42288;52.182;21.156;2024-01-30T09:20:32;47.97;;;19.70;;
16979;SDS011;42288;52.182;21.156;2024-01-30T09:22:57;41.70;;;18.90;;
16979;SDS011;42288;52.182;21.156;2024-01-30T09:25:23;41.77;;;17.93;;
16979;SDS011;42288;52.182;21.156;2024-01-30T09:27:48;35.73;;;17.93;;
16979;SDS011;42288;52.182;21.156;2024-01-30T09:30:14;41.33;;;17.77;;
16979;SDS011;42288;52.182;21.156;2024-01-30T09:32:40;43.10;;;18.63;;
16979;SDS011;42288;52.182;21.156;2024-01-30T09:35:05;40.70;;;18.47;;
16979;SDS011;42288;52.182;21.156;2024-01-30T09:37:31;38.80;;;15.53;;
16979;SDS011;42288;52.182;21.156;2024-01-30T09:39:57;39.37;;;18.07;;
16979;SDS011;42288;52.182;21.156;2024-01-30T09:42:28;36.77;;;16.17;;
16979;SDS011;42288;52.182;21.156;2024-01-30T09:45:04;38.03;;;17.43;;
16979;SDS011;42288;52.182;21.156;2024-01-30T09:47:31;39.53;;;17.13;;
16979;SDS011;42288;52.182;21.156;2024-01-30T09:50:00;35.73;;;17.47;;
16979;SDS011;42288;52.182;21.156;2024-01-30T09:52:27;36.57;;;18.27;;
16979;SDS011;42288;52.182;21.156;2024-01-30T09:54:53;34.27;;;16.40;;
16979;SDS011;42288;52.182;21.156;2024-01-30T09:57:18;32.50;;;16.20;;
16979;SDS011;42288;52.182;21.156;2024-01-30T09:59:44;35.33;;;16.70;;
16979;SDS011;42288;52.182;21.156;2024-01-30T10:02:10;35.63;;;15.90;;
16979;SDS011;42288;52.182;21.156;2024-01-30T10:04:35;31.80;;;15.50;;
16979;SDS011;42288;52.182;21.156;2024-01-30T10:07:01;29.90;;;15.50;;
16979;SDS011;42288;52.182;21.156;2024-01-30T10:09:27;39.13;;;16.40;;
16979;SDS011;42288;52.182;21.156;2024-01-30T10:11:53;34.73;;;15.30;;
16979;SDS011;42288;52.182;21.156;2024-01-30T10:14:18;32.23;;;15.50;;
16979;SDS011;42288;52.182;21.156;2024-01-30T10:16:45;31.37;;;15.87;;
16979;SDS011;42288;52.182;21.156;2024-01-30T10:19:11;30.77;;;14.83;;
16979;SDS011;42288;52.182;21.156;2024-01-30T10:21:37;31.33;;;14.60;;
16979;SDS011;42288;52.182;21.156;2024-01-30T10:24:03;31.10;;;15.43;;
16979;SDS011;42288;52.182;21.156;2024-01-30T10:26:29;32.17;;;15.00;;
16979;SDS011;42288;52.182;21.156;2024-01-30T10:28:58;32.63;;;14.97;;
16979;SDS011;42288;52.182;21.156;2024-01-30T10:31:23;29.17;;;15.07;;
16979;SDS011;42288;52.182;21.156;2024-01-30T10:33:49;28.27;;;14.03;;
16979;SDS011;42288;52.182;21.156;2024-01-30T10:36:14;28.97;;;14.40;;
16979;SDS011;42288;52.182;21.156;2024-01-30T10:38:41;31.87;;;14.87;;
16979;SDS011;42288;52.182;21.156;2024-01-30T10:41:08;26.60;;;14.23;;
16979;SDS011;42288;52.182;21.156;2024-01-30T10:43:40;24.87;;;14.07;;
16979;SDS011;42288;52.182;21.156;2024-01-30T10:46:18;28.50;;;14.30;;
16979;SDS011;42288;52.182;21.156;2024-01-30T10:48:46;25.60;;;14.27;;
16979;SDS011;42288;52.182;21.156;2024-01-30T10:51:22;30.97;;;13.77;;
16979;SDS011;42288;52.182;21.156;2024-01-30T10:53:48;33.03;;;15.43;;
16979;SDS011;42288;52.182;21.156;2024-01-30T10:58:41;28.73;;;14.70;;
16979;SDS011;42288;52.182;21.156;2024-01-30T11:01:07;28.87;;;14.67;;
16979;SDS011;42288;52.182;21.156;2024-01-30T11:03:33;24.50;;;13.13;;
16979;SDS011;42288;52.182;21.156;2024-01-30T11:06:02;29.57;;;14.67;;
16979;SDS011;42288;52.182;21.156;2024-01-30T11:08:28;29.13;;;13.93;;
16979;SDS011;42288;52.182;21.156;2024-01-30T11:10:57;22.60;;;12.70;;
16979;SDS011;42288;52.182;21.156;2024-01-30T11:13:26;27.00;;;13.30;;
16979;SDS011;42288;52.182;21.156;2024-01-30T11:15:53;26.60;;;14.07;;
16979;SDS011;42288;52.182;21.156;2024-01-30T11:18:25;25.67;;;12.83;;
16979;SDS011;42288;52.182;21.156;2024-01-30T11:20:51;29.03;;;14.57;;
16979;SDS011;42288;52.182;21.156;2024-01-30T11:23:16;28.73;;;14.67;;
16979;SDS011;42288;52.182;21.156;2024-01-30T11:25:43;28.37;;;14.90;;
16979;SDS011;42288;52.182;21.156;2024-01-30T11:28:13;28.73;;;13.47;;
16979;SDS011;42288;52.182;21.156;2024-01-30T11:30:43;28.43;;;15.00;;
16979;SDS011;42288;52.182;21.156;2024-01-30T11:33:10;26.50;;;13.77;;
16979;SDS011;42288;52.182;21.156;2024-01-30T11:35:41;29.57;;;13.63;;
16979;SDS011;42288;52.182;21.156;2024-01-30T11:38:08;28.87;;;13.27;;
16979;SDS011;42288;52.182;21.156;2024-01-30T11:40:36;30.77;;;14.33;;
16979;SDS011;42288;52.182;21.156;2024-01-30T11:43:03;29.13;;;13.77;;
16979;SDS011;42288;52.182;21.156;2024-01-30T11:45:30;28.77;;;14.17;;
16979;SDS011;42288;52.182;21.156;2024-01-30T11:47:57;27.57;;;13.47;;
16979;SDS011;42288;52.182;21.156;2024-01-30T11:50:25;30.00;;;13.83;;
16979;SDS011;42288;52.182;21.156;2024-01-30T11:52:51;31.50;;;14.60;;
16979;SDS011;42288;52.182;21.156;2024-01-30T11:55:16;32.07;;;13.10;;
16979;SDS011;42288;52.182;21.156;2024-01-30T11:57:42;29.67;;;13.83;;
16979;SDS011;42288;52.182;21.156;2024-01-30T12:00:16;34.07;;;14.27;;
16979;SDS011;42288;52.182;21.156;2024-01-30T12:02:43;26.50;;;12.57;;
16979;SDS011;42288;52.182;21.156;2024-01-30T12:05:09;27.80;;;12.93;;
16979;SDS011;42288;52.182;21.156;2024-01-30T12:07:35;30.20;;;13.50;;
16979;SDS011;42288;52.182;21.156;2024-01-30T12:10:01;23.70;;;11.93;;
16979;SDS011;42288;52.182;21.156;2024-01-30T12:12:28;26.70;;;13.23;;
16979;SDS011;42288;52.182;21.156;2024-01-30T12:14:56;27.90;;;13.80;;
16979;SDS011;42288;52.182;21.156;2024-01-30T12:17:31;24.07;;;13.03;;
16979;SDS011;42288;52.182;21.156;2024-01-30T12:22:36;27.63;;;12.33;;
16979;SDS011;42288;52.182;21.156;2024-01-30T12:25:12;23.37;;;11.37;;
16979;SDS011;42288;52.182;21.156;2024-01-30T12:27:39;24.27;;;12.70;;
16979;SDS011;42288;52.182;21.156;2024-01-30T12:30:12;27.17;;;12.97;;
16979;SDS011;42288;52.182;21.156;2024-01-30T12:32:39;26.33;;;11.53;;
16979;SDS011;42288;52.182;21.156;2024-01-30T12:35:10;24.47;;;12.70;;
16979;SDS011;42288;52.182;21.156;2024-01-30T12:37:37;27.57;;;13.00;;
16979;SDS011;42288;52.182;21.156;2024-01-30T12:40:03;29.50;;;13.23;;
16979;SDS011;42288;52.182;21.156;2024-01-30T12:42:29;27.87;;;13.93;;
16979;SDS011;42288;52.182;21.156;2024-01-30T12:44:56;26.73;;;12.47;;
16979;SDS011;42288;52.182;21.156;2024-01-30T12:47:23;24.93;;;12.40;;
16979;SDS011;42288;52.182;21.156;2024-01-30T12:49:49;24.37;;;12.90;;
16979;SDS011;42288;52.182;21.156;2024-01-30T12:52:18;25.20;;;13.00;;
16979;SDS011;42288;52.182;21.156;2024-01-30T12:54:44;24.83;;;12.80;;
16979;SDS011;42288;52.182;21.156;2024-01-30T12:57:10;28.10;;;12.73;;
16979;SDS011;42288;52.182;21.156;2024-01-30T12:59:35;28.17;;;12.53;;
16979;SDS011;42288;52.182;21.156;2024-01-30T13:02:01;25.20;;;12.17;;
16979;SDS011;42288;52.182;21.156;2024-01-30T13:04:28;26.57;;;12.53;;
16979;SDS011;42288;52.182;21.156;2024-01-30T13:06:54;25.77;;;12.70;;
16979;SDS011;42288;52.182;21.156;2024-01-30T13:09:19;30.17;;;12.50;;
16979;SDS011;42288;52.182;21.156;2024-01-30T13:11:45;28.77;;;14.27;;
16979;SDS011;42288;52.182;21.156;2024-01-30T13:14:11;27.20;;;13.10;;
16979;SDS011;42288;52.182;21.156;2024-01-30T13:16:37;30.50;;;13.40;;
16979;SDS011;42288;52.182;21.156;2024-01-30T13:19:02;29.00;;;13.23;;
16979;SDS011;42288;52.182;21.156;2024-01-30T13:21:28;26.97;;;13.30;;
16979;SDS011;42288;52.182;21.156;2024-01-30T13:23:54;26.20;;;12.60;;
16979;SDS011;42288;52.182;21.156;2024-01-30T13:26:22;24.50;;;12.63;;
16979;SDS011;42288;52.182;21.156;2024-01-30T13:28:48;28.10;;;13.50;;
16979;SDS011;42288;52.182;21.156;2024-01-30T13:31:14;26.27;;;12.87;;
16979;SDS011;42288;52.182;21.156;2024-01-30T13:33:40;28.87;;;13.30;;
16979;SDS011;42288;52.182;21.156;2024-01-30T13:36:06;26.17;;;12.87;;
16979;SDS011;42288;52.182;21.156;2024-01-30T13:38:32;28.23;;;13.40;;
16979;SDS011;42288;52.182;21.156;2024-01-30T13:40:58;33.43;;;13.60;;
16979;SDS011;42288;52.182;21.156;2024-01-30T13:43:24;30.07;;;13.53;;
16979;SDS011;42288;52.182;21.156;2024-01-30T13:45:49;30.37;;;13.40;;
16979;SDS011;42288;52.182;21.156;2024-01-30T13:48:15;28.93;;;12.63;;
16979;SDS011;42288;52.182;21.156;2024-01-30T13:50:41;31.07;;;14.13;;
16979;SDS011;42288;52.182;21.156;2024-01-30T13:53:06;24.27;;;12.57;;
16979;SDS011;42288;52.182;21.156;2024-01-30T13:55:32;29.47;;;13.20;;
16979;SDS011;42288;52.182;21.156;2024-01-30T13:57:57;28.57;;;13.50;;
16979;SDS011;42288;52.182;21.156;2024-01-30T14:00:23;29.47;;;12.93;;
16979;SDS011;42288;52.182;21.156;2024-01-30T14:02:50;31.37;;;13.70;;
16979;SDS011;42288;52.182;21.156;2024-01-30T14:05:16;29.97;;;13.23;;
16979;SDS011;42288;52.182;21.156;2024-01-30T14:07:42;26.43;;;13.37;;